Strona główna
METAR-TAF:

METAR-TAF

Lotnisko :

Colmar, Francja

Szerokość geograficzna: 48-06-37N, Długość geograficzna: 7-21-33E, wysokość: 191 m

Aktualna obserwacja pogody

Raport powstał 24 minut temu, godzina 16:30 UTC
Wiatr 6 kt od południe
Temperatura 5°C
Wilgotność 87%
Ciśnienie 1013 hPa
Widzialność 10 km lub więcej
Brak chmur poniżej 1500 m i brak chmur cumulonimbus

METAR: LFGA 181630Z AUTO 18006KT CAVOK 05/03 Q1013

czas: 17:54 (16:54 UTC)


TAF: brakujący

Obserwacja i prognoza pogody dla ponad 4000 lotnisk (raport METAR i TAF).

Dostępne stacje oznaczono żółtymi i czerwonymi punktami na mapie.

Najedź kursorem aby zobaczyć nazwę stacji.

Kliknij aby zobaczyć obserwacje i prognozy pogody.

Aby zmienić mapę: kliknij na zielony przycisk z czarnym krzyżykiem, aby powiększyć; na zielony przycisk z myślnikiem, aby pomniejszyć; na zielone strzałki, aby przejść do map sąsiednich.


METAR-TAF: